Latest Weather Observations for Adelaide Airport

IDS60801

Issued at 11:21 am CST Tuesday 16 August 2022 (issued every 10 minutes, with the page automatically refreshed every 10 minutes)

About weather observations | Map of weather stations | Latest weather observations for SA | Other Formats
Station Details ID: 023034 Name: ADELAIDE AIRPORT Lat: -34.95 Lon: 138.52 Height: 2.0 m
Data from the previous 72 hours. | See also: Recent months at Adelaide Airport
Date/Time
CST
Temp
°C
App
Temp
°C
Dew
Point
°C
Rel
Hum
%
Delta-T
°C
Wind Press
QNH
hPa
Press
MSL
hPa
Rain since
9am
mm
Dir  Spd
km/h
Gust
km/h
Spd
kts
Gust
kts
16/11:00am 14.3 11.7 10.7 79 1.9 WSW 15 20 8 11 1020.7 1020.7 0.0
16/10:30am 13.6 10.9 10.2 80 1.8 SW 15 20 8 11 1020.9 1020.9 0.0
16/10:00am 13.4 10.6 10.0 80 1.8 SW 15 20 8 11 1020.6 1020.6 0.0
16/09:30am 13.4 11.0 10.2 81 1.7 SSW 13 17 7 9 1020.4 1020.4 0.0
16/09:00am 13.2 11.6 10.2 82 1.5 SSE 9 11 5 6 1020.1 1020.1 2.2
16/08:30am 12.6 10.9 9.8 83 1.4 SSE 9 13 5 7 1020.1 1020.1 2.2
16/08:00am 12.7 10.7 10.1 84 1.3 E 11 11 6 6 1019.6 1019.6 2.2
16/07:30am 11.9 10.1 9.3 84 1.3 SE 9 11 5 6 1019.4 1019.4 2.2
16/07:00am 12.3 10.2 9.7 84 1.3 S 11 13 6 7 1019.1 1019.1 2.2
16/06:30am 12.4 10.2 9.2 81 1.6 S 11 13 6 7 1018.6 1018.6 2.2
16/06:00am 12.3 11.4 9.1 81 1.6 ENE 4 7 2 4 1018.0 1018.0 2.2
16/05:30am 11.9 9.6 8.9 82 1.5 E 11 13 6 7 1017.6 1017.6 2.2
16/05:00am 9.3 8.9 8.2 93 0.5 CALM 0 0 0 0 1017.0 1017.0 2.2
16/04:30am 8.2 5.8 6.8 91 0.6 ENE 9 9 5 5 1016.4 1016.4 2.2
16/04:00am 11.6 9.4 9.2 85 1.2 SSW 11 13 6 7 1016.2 1016.2 2.2
16/03:30am 11.9 10.1 9.3 84 1.3 SW 9 13 5 7 1016.3 1016.3 2.2
16/03:00am 11.9 10.5 9.5 85 1.2 SSW 7 9 4 5 1016.0 1016.0 2.2
16/02:30am 9.4 7.9 8.3 93 0.5 ESE 6 7 3 4 1016.2 1016.2 2.2
16/02:00am 11.6 10.2 9.7 88 1.0 ESE 7 9 4 5 1016.1 1016.1 2.2
16/01:30am 12.0 10.2 9.6 85 1.2 SE 9 9 5 5 1016.1 1016.1 2.2
16/01:00am 12.0 9.4 9.4 84 1.3 SSW 13 20 7 11 1016.0 1016.0 2.2
16/12:30am 12.1 9.6 9.8 86 1.2 SSW 13 17 7 9 1015.9 1015.9 2.2
16/12:00am 12.2 9.1 8.9 80 1.6 SSW 15 20 8 11 1015.7 1015.7 2.2
 
Date/Time
CST
Temp
°C
App
Temp
°C
Dew
Point
°C
Rel
Hum
%
Delta-T
°C
Wind Press
QNH
hPa
Press
MSL
hPa
Rain since
9am
mm
Dir  Spd
km/h
Gust
km/h
Spd
kts
Gust
kts
15/11:30pm 12.4 9.7 10.5 88 1.0 SW 15 19 8 10 1015.4 1015.4 1.8
15/11:00pm 12.0 10.0 10.1 88 1.0 SW 11 15 6 8 1015.3 1015.3 1.8
15/10:30pm 11.6 10.4 10.2 91 0.7 SSW 7 11 4 6 1015.1 1015.1 1.8
15/10:00pm 11.8 10.8 10.4 91 0.7 S 6 7 3 4 1014.6 1014.6 1.8
15/09:30pm 12.2 11.2 10.9 92 0.7 SSW 7 7 4 4 1014.3 1014.3 1.8
15/09:00pm 11.5 9.5 10.1 91 0.7 SSW 11 11 6 6 1014.2 1014.2 1.8
15/08:30pm 11.6 9.9 10.0 90 0.8 SW 9 13 5 7 1013.8 1013.8 1.4
15/08:00pm 12.0 10.0 10.1 88 1.0 SSW 11 19 6 10 1013.8 1013.8 0.8
15/07:30pm 12.6 11.2 9.6 82 1.5 SSW 7 11 4 6 1013.3 1013.3 0.2
15/07:00pm 12.4 10.4 10.3 87 1.1 SSW 11 15 6 8 1013.0 1013.0 0.2
15/06:30pm 12.1 9.4 10.3 89 0.9 SSW 15 20 8 11 1012.4 1012.4 0.2
15/06:00pm 11.9 7.9 9.1 83 1.4 WSW 20 28 11 15 1011.8 1011.8 0.2
15/05:30pm 12.5 8.8 9.3 81 1.6 SW 19 26 10 14 1011.4 1011.4 0.2
15/05:00pm 13.1 10.2 11.0 87 1.1 SW 17 20 9 11 1011.0 1011.0 0.0
15/04:30pm 13.9 10.4 10.3 79 1.9 SW 19 24 10 13 1010.6 1010.6 0.0
15/04:00pm 14.1 11.3 11.3 83 1.5 WSW 17 24 9 13 1010.3 1010.3 0.0
15/03:30pm 14.2 11.3 11.0 81 1.7 WSW 17 20 9 11 1010.2 1010.2 0.0
15/03:00pm 14.3 11.5 11.3 82 1.6 WSW 17 20 9 11 1010.1 1010.1 0.0
15/02:30pm 13.6 10.6 10.6 82 1.6 WSW 17 20 9 11 1009.9 1009.9 0.0
15/02:00pm 14.2 10.8 10.6 79 1.9 W 19 26 10 14 1009.8 1009.8 0.0
15/01:30pm 13.7 10.1 10.5 81 1.7 WSW 20 26 11 14 1010.0 1010.0 0.0
15/01:00pm 14.1 10.2 10.9 81 1.7 W 22 26 12 14 1010.3 1010.3 0.0
15/12:30pm 14.1 10.9 11.1 82 1.6 W 19 28 10 15 1010.6 1010.6 0.0
15/12:00pm 13.7 10.7 10.5 81 1.7 W 17 22 9 12 1010.5 1010.5 0.0
15/11:30am 13.9 10.5 10.5 80 1.8 W 19 26 10 14 1010.8 1010.8 0.0
15/11:00am 13.5 10.5 10.7 83 1.5 W 17 22 9 12 1010.8 1010.8 0.0
15/10:30am 13.8 10.2 10.6 81 1.7 WNW 20 28 11 15 1010.9 1010.9 0.0
15/10:00am 13.4 10.3 10.2 81 1.7 W 17 22 9 12 1011.0 1011.0 0.0
15/09:30am 13.1 10.1 10.5 84 1.4 W 17 22 9 12 1011.1 1011.1 0.0
15/09:00am 12.8 10.4 10.2 84 1.3 W 13 17 7 9 1011.0 1011.0 0.4
15/08:30am 12.8 10.4 10.2 84 1.3 N 13 15 7 8 1010.8 1010.8 0.4
15/08:00am 11.6 9.8 10.7 94 0.5 N 11 15 6 8 1010.8 1010.8 0.4
15/07:30am 11.0 8.6 9.9 93 0.6 N 13 15 7 8 1010.6 1010.6 0.4
15/07:09am 10.9 8.5 10.1 95 0.4 NNE 13 15 7 8 1010.6 1010.6 0.4
15/07:00am 11.0 9.0 10.2 95 0.4 N 11 13 6 7 1010.5 1010.5 0.4
15/06:30am 10.8 8.8 10.0 95 0.4 N 11 13 6 7 1010.6 1010.6 0.4
15/06:00am 10.9 9.3 10.1 95 0.4 N 9 13 5 7 1010.6 1010.6 0.4
15/05:30am 10.8 8.4 10.0 95 0.4 N 13 15 7 8 1010.6 1010.6 0.4
15/05:00am 10.7 9.1 10.1 96 0.3 NE 9 13 5 7 1010.6 1010.6 0.4
15/04:30am 10.5 8.8 9.7 95 0.4 NNE 9 13 5 7 1010.6 1010.6 0.4
15/04:00am 10.6 8.5 9.7 94 0.5 NNE 11 13 6 7 1010.5 1010.5 0.4
15/03:30am 10.6 8.5 9.7 94 0.5 NNE 11 13 6 7 1010.8 1010.8 0.4
15/03:00am 10.8 8.7 9.7 93 0.6 NNE 11 13 6 7 1011.1 1011.1 0.4
15/02:30am 11.5 9.5 10.1 91 0.7 NE 11 13 6 7 1011.3 1011.3 0.4
15/02:00am 12.1 10.5 10.2 88 1.0 NNE 9 13 5 7 1011.5 1011.5 0.4
15/01:30am 12.2 10.0 10.8 91 0.7 NW 13 19 7 10 1011.9 1011.9 0.4
15/01:00am 12.1 10.3 11.0 93 0.6 N 11 13 6 7 1012.4 1012.4 0.4
15/12:30am 11.2 9.2 10.0 92 0.6 NNE 11 11 6 6 1012.5 1012.5 0.4
15/12:00am 11.9 10.4 10.5 91 0.7 N 9 11 5 6 1012.8 1012.8 0.4
 
Date/Time
CST
Temp
°C
App
Temp
°C
Dew
Point
°C
Rel
Hum
%
Delta-T
°C
Wind Press
QNH
hPa
Press
MSL
hPa
Rain since
9am
mm
Dir  Spd
km/h
Gust
km/h
Spd
kts
Gust
kts
14/11:30pm 12.1 10.6 10.7 91 0.7 N 9 11 5 6 1013.0 1013.0 0.4
14/11:00pm 11.5 10.0 10.7 95 0.4 NNE 9 11 5 6 1013.2 1013.2 0.4
14/10:30pm 11.0 9.4 10.2 95 0.4 NNE 9 11 5 6 1013.4 1013.4 0.4
14/10:00pm 10.4 9.0 9.5 94 0.4 ENE 7 9 4 5 1013.5 1013.5 0.4
14/09:30pm 11.8 12.0 10.4 91 0.7 CALM 0 6 0 3 1013.6 1013.6 0.4
14/09:00pm 12.1 11.1 10.3 89 0.9 N 6 7 3 4 1013.6 1013.6 0.4
14/08:30pm 11.9 10.8 10.6 92 0.7 SSW 7 11 4 6 1013.9 1013.9 0.4
14/08:00pm 11.8 10.9 10.5 92 0.7 S 6 7 3 4 1013.8 1013.8 0.4
14/07:30pm 12.0 12.2 10.4 90 0.8 CALM 0 4 0 2 1013.8 1013.8 0.4
14/07:18pm 12.1 11.5 10.3 89 0.9 WNW 4 7 2 4 1013.8 1013.8 0.4
14/07:00pm 12.4 10.8 10.3 87 1.1 W 9 13 5 7 1013.8 1013.8 0.2
14/06:30pm 12.5 10.4 9.7 83 1.4 NW 11 13 6 7 1013.6 1013.6 0.0
14/06:00pm 12.7 11.4 10.1 84 1.3 W 7 13 4 7 1013.5 1013.5 0.0
14/05:30pm 12.6 11.0 10.1 85 1.3 WSW 9 11 5 6 1013.5 1013.5 0.0
14/05:00pm 12.8 10.2 10.7 87 1.1 W 15 20 8 11 1013.7 1013.7 0.0
14/04:30pm 13.2 10.3 11.1 87 1.1 WNW 17 20 9 11 1013.7 1013.7 0.0
14/04:00pm 13.5 11.3 10.7 83 1.5 W 13 17 7 9 1013.5 1013.5 0.0
14/03:30pm 14.4 11.8 10.6 78 2.0 WSW 15 19 8 10 1013.8 1013.8 0.0
14/03:00pm 14.2 11.8 10.0 76 2.2 W 13 19 7 10 1013.8 1013.8 0.0
14/02:30pm 14.7 12.3 11.5 81 1.7 WSW 15 19 8 10 1013.8 1013.8 0.0
14/02:00pm 14.5 11.4 11.5 82 1.6 W 19 24 10 13 1014.1 1014.1 0.0
14/01:30pm 14.3 11.0 11.5 83 1.5 W 20 28 11 15 1014.5 1014.5 0.0
14/01:00pm 14.3 11.0 11.6 84 1.4 W 20 26 11 14 1014.8 1014.8 0.0
14/12:30pm 14.4 10.8 11.9 85 1.3 W 22 28 12 15 1015.0 1015.0 0.0
14/12:00pm 14.3 11.2 11.6 84 1.4 W 19 26 10 14 1015.3 1015.3 0.0
14/11:30am 13.9 10.5 11.2 84 1.4 WSW 20 26 11 14 1015.5 1015.5 0.0
14/11:00am 13.7 11.2 11.2 85 1.3 W 15 22 8 12 1015.5 1015.5 0.0
14/10:30am 13.9 10.7 11.4 85 1.3 WSW 19 22 10 12 1015.8 1015.8 0.0
14/10:00am 13.5 10.2 11.0 85 1.3 WSW 19 26 10 14 1015.7 1015.7 0.0
14/09:30am 12.8 9.9 10.9 88 1.0 W 17 22 9 12 1015.8 1015.8 0.0
14/09:00am 12.6 9.8 11.3 92 0.7 WSW 17 22 9 12 1015.8 1015.8 2.4
14/08:32am 11.9 11.1 11.1 95 0.4 S 6 7 3 4 1015.5 1015.5 2.4
14/08:30am 12.0 11.3 11.4 96 0.3 SSE 6 9 3 5 1015.5 1015.5 2.4
14/08:19am 11.7 10.7 11.1 96 0.3 ESE 7 13 4 7 1015.5 1015.5 2.4
14/08:08am 10.7 10.0 10.2 97 0.3 SE 4 9 2 5 1015.4 1015.4 2.4
14/08:00am 10.5 10.2 10.0 97 0.3 S 2 9 1 5 1015.3 1015.3 2.4
14/07:45am 9.9 8.1 9.4 97 0.2 N 9 13 5 7 1015.2 1015.2 2.4
14/07:30am 9.3 7.7 8.8 97 0.2 NE 7 9 4 5 1015.1 1015.1 2.4
14/07:00am 8.6 8.2 8.2 97 0.2 CALM 0 0 0 0 1014.8 1014.8 2.4
14/06:30am 7.9 6.1 7.3 96 0.3 ENE 6 7 3 4 1014.4 1014.4 2.4
14/06:21am 8.0 7.0 7.4 96 0.3 ENE 2 7 1 4 1014.2 1014.2 2.4
14/06:10am 8.3 7.0 7.7 96 0.3 ENE 4 7 2 4 1014.2 1014.2 2.4
14/06:07am 8.2 6.3 7.6 96 0.3 ENE 7 9 4 5 1014.2 1014.2 2.4
14/06:00am 8.1 6.2 7.5 96 0.3 ENE 7 9 4 5 1014.2 1014.2 2.4
14/05:42am 8.6 8.1 8.0 96 0.3 CALM 0 9 0 5 1014.1 1014.1 2.4
14/05:30am 8.2 6.4 7.3 94 0.4 ENE 6 7 3 4 1014.0 1014.0 2.4
14/05:19am 9.2 8.8 8.4 95 0.4 CALM 0 7 0 4 1014.0 1014.0 2.4
14/05:00am 9.8 9.6 9.0 95 0.4 CALM 0 0 0 0 1014.0 1014.0 2.4
14/04:30am 9.0 7.5 8.4 96 0.3 E 6 6 3 3 1013.9 1013.9 2.4
14/04:07am 8.7 6.9 7.8 94 0.4 E 7 7 4 4 1013.9 1013.9 2.4
14/04:00am 8.8 6.9 7.6 92 0.6 E 7 9 4 5 1013.9 1013.9 2.4
14/03:30am 11.4 11.5 10.3 93 0.6 CALM 0 0 0 0 1013.7 1013.7 2.4
14/03:00am 11.2 9.5 9.8 91 0.7 SE 9 11 5 6 1013.8 1013.8 2.4
14/02:30am 11.7 11.2 10.6 93 0.6 SSW 4 9 2 5 1014.0 1014.0 2.4
14/02:00am 11.7 11.9 10.4 92 0.7 CALM 0 0 0 0 1014.4 1014.4 2.4
14/01:30am 12.0 10.8 10.4 90 0.8 SSW 7 13 4 7 1014.4 1014.4 2.4
14/01:00am 11.9 9.6 10.6 92 0.7 SW 13 15 7 8 1014.5 1014.5 2.4
14/12:30am 12.2 10.3 10.6 90 0.8 SW 11 13 6 7 1014.5 1014.5 2.4
14/12:00am 12.1 10.2 10.5 90 0.8 SW 11 13 6 7 1014.5 1014.5 2.2
 
Date/Time
CST
Temp
°C
App
Temp
°C
Dew
Point
°C
Rel
Hum
%
Delta-T
°C
Wind Press
QNH
hPa
Press
MSL
hPa
Rain since
9am
mm
Dir  Spd
km/h
Gust
km/h
Spd
kts
Gust
kts
13/11:30pm 12.0 9.3 10.4 90 0.8 WSW 15 19 8 10 1014.5 1014.5 2.2
13/11:00pm 12.1 10.3 10.7 91 0.7 WSW 11 15 6 8 1014.7 1014.7 2.2
13/10:30pm 12.2 9.6 10.8 91 0.7 WSW 15 20 8 11 1014.8 1014.8 2.2
13/10:00pm 12.0 10.1 10.6 91 0.7 WSW 11 15 6 8 1014.8 1014.8 2.2
13/09:30pm 12.6 11.7 10.8 89 0.9 S 6 7 3 4 1014.9 1014.9 2.2
13/09:00pm 12.7 11.4 11.1 90 0.8 SW 9 15 5 8 1014.9 1014.9 2.2
13/08:30pm 12.3 10.0 10.5 89 0.9 WSW 13 19 7 10 1014.7 1014.7 2.2
13/08:00pm 12.1 10.1 10.0 87 1.1 WSW 11 13 6 7 1014.4 1014.4 2.2
13/07:30pm 11.9 10.3 10.1 89 0.9 WSW 9 11 5 6 1014.1 1014.1 2.2
13/07:00pm 12.3 9.2 10.2 87 1.1 WSW 17 20 9 11 1013.9 1013.9 2.2
13/06:30pm 12.5 9.3 10.0 85 1.3 WSW 17 20 9 11 1013.8 1013.8 2.2
13/06:00pm 12.5 9.4 10.2 86 1.2 WSW 17 24 9 13 1013.6 1013.6 2.2
13/05:30pm 12.8 9.6 9.8 82 1.5 WSW 17 20 9 11 1013.5 1013.5 2.2
13/05:00pm 13.2 9.8 10.4 83 1.5 WSW 19 22 10 12 1013.3 1013.3 2.2
13/04:30pm 13.6 10.2 10.6 82 1.6 SW 19 26 10 14 1013.2 1013.2 2.2
13/04:00pm 13.6 10.0 10.4 81 1.7 WSW 20 26 11 14 1013.1 1013.1 2.2
13/03:30pm 13.9 9.7 9.9 77 2.1 WSW 22 30 12 16 1013.1 1013.1 2.2
13/03:00pm 14.1 9.5 11.1 82 1.6 WSW 26 32 14 17 1013.1 1013.1 2.2
13/02:30pm 13.7 9.3 10.5 81 1.7 WSW 24 30 13 16 1013.0 1013.0 2.2
13/02:00pm 14.2 10.0 11.2 82 1.6 WSW 24 30 13 16 1013.1 1013.1 2.2
13/01:30pm 13.8 9.5 10.6 81 1.7 WSW 24 30 13 16 1013.1 1013.1 2.2
13/01:00pm 13.8 9.8 10.6 81 1.7 WSW 22 28 12 15 1013.2 1013.2 2.2
13/12:30pm 13.6 9.8 11.0 84 1.4 WSW 22 28 12 15 1013.7 1013.7 2.2
13/12:00pm 13.3 8.8 9.9 80 1.7 SW 24 30 13 16 1014.0 1014.0 2.2
13/11:30am 13.7 9.8 10.9 83 1.5 SW 22 28 12 15 1014.0 1014.0 2.2

Other formats

Comma delimited format used in spreadsheet applications
http://www.bom.gov.au/fwo/IDS60801/IDS60801.94672.axf

JavaScript Object Notation format (JSON) in row-major order
http://www.bom.gov.au/fwo/IDS60801/IDS60801.94672.json

Data quality

Most of these data are generated automatically and are frequently updated. Quality checks on data are not normally performed. It is possible for incorrect values to appear. Refer to information at About Latest Weather Observations and please check the disclaimer before using these data.